Time;durP1;ratioP1;P1;durP2;ratioP2;P2;SDS_P1;SDS_P2;PMS_P1;PMS_P2;Temp;Humidity;BMP_temperature;BMP_pressure;BME280_temperature;BME280_humidity;BME280_pressure;Samples;Min_cycle;Max_cycle;Signal;HPM_P1;HPM_P2
2023/02/14 00:01:06;;;;;;;6.67;3.60;;;-0.70;99.90;;;;;;4204709;28;20484;-74
2023/02/14 00:03:07;;;;;;;4.60;3.20;;;-0.70;99.90;;;;;;4204952;28;20876;-75
2023/02/14 00:05:10;;;;;;;6.13;3.53;;;-0.70;99.90;;;;;;4204496;28;20594;-75
2023/02/14 00:07:11;;;;;;;5.10;3.00;;;-0.60;99.90;;;;;;4201582;28;20452;-73
2023/02/14 00:09:17;;;;;;;6.37;3.37;;;-0.60;99.90;;;;;;4203844;28;20886;-74
2023/02/14 00:11:19;;;;;;;3.70;2.87;;;-0.60;99.90;;;;;;4202437;28;20460;-74
2023/02/14 00:13:20;;;;;;;5.23;3.20;;;-0.60;99.90;;;;;;4204020;28;20432;-74
2023/02/14 00:15:24;;;;;;;6.73;3.60;;;-0.60;99.90;;;;;;4203606;28;20523;-74
2023/02/14 00:17:24;;;;;;;6.50;3.23;;;-0.60;99.90;;;;;;4199312;28;20218;-74
2023/02/14 00:19:25;;;;;;;5.00;3.13;;;-0.60;99.90;;;;;;4213440;28;20942;-73
2023/02/14 00:21:26;;;;;;;4.00;3.10;;;-0.60;99.90;;;;;;4213530;28;20179;-74
2023/02/14 00:23:26;;;;;;;4.37;3.00;;;-0.50;99.90;;;;;;4213472;28;20195;-74
2023/02/14 00:25:27;;;;;;;6.70;3.50;;;-0.60;99.90;;;;;;4212098;28;20567;-74
2023/02/14 00:27:28;;;;;;;5.27;2.90;;;-0.60;99.90;;;;;;4200436;28;20203;-74
2023/02/14 00:29:31;;;;;;;4.50;2.97;;;-0.70;99.90;;;;;;4195720;28;20190;-75
2023/02/14 00:31:34;;;;;;;3.00;2.67;;;-0.60;99.90;;;;;;4196781;28;20606;-74
2023/02/14 00:33:35;;;;;;;4.83;2.77;;;-0.60;99.90;;;;;;4194711;28;20531;-74
2023/02/14 00:35:37;;;;;;;6.10;3.17;;;-0.70;99.90;;;;;;4197547;28;21065;-76
2023/02/14 00:37:40;;;;;;;3.73;2.63;;;-0.70;99.90;;;;;;4203974;28;20885;-73
2023/02/14 00:39:42;;;;;;;3.77;2.70;;;-0.70;99.90;;;;;;4196063;28;20450;-74
2023/02/14 00:41:43;;;;;;;3.57;2.57;;;-0.70;99.90;;;;;;4201230;28;20463;-74
2023/02/14 00:43:52;;;;;;;5.43;2.70;;;-0.70;99.90;;;;;;4206954;28;20430;-74
2023/02/14 00:45:53;;;;;;;4.13;2.50;;;-0.70;99.90;;;;;;4199007;28;20453;-75
2023/02/14 00:47:56;;;;;;;5.17;3.40;;;-0.70;99.90;;;;;;4198428;28;20434;-74
2023/02/14 00:50:01;;;;;;;4.47;3.00;;;-0.70;99.90;;;;;;4200512;28;20572;-75
2023/02/14 00:52:03;;;;;;;4.37;2.93;;;-0.70;99.90;;;;;;4201011;28;20797;-75
2023/02/14 00:54:08;;;;;;;4.47;2.60;;;-0.70;99.90;;;;;;4198099;28;20426;-74
2023/02/14 00:56:08;;;;;;;3.87;2.60;;;-0.70;99.90;;;;;;4213458;28;20455;-75
2023/02/14 00:58:09;;;;;;;3.87;2.63;;;-0.70;99.90;;;;;;4203695;28;20567;-74
2023/02/14 01:00:11;;;;;;;4.27;2.80;;;-0.70;99.90;;;;;;4183289;28;20199;-73
2023/02/14 01:02:13;;;;;;;4.43;2.43;;;-0.70;99.90;;;;;;4195703;28;20191;-73
2023/02/14 01:04:16;;;;;;;4.47;2.80;;;-0.70;99.90;;;;;;4186882;28;20437;-73
2023/02/14 01:06:21;;;;;;;4.27;2.37;;;-0.70;99.90;;;;;;4200410;28;20445;-73
2023/02/14 01:08:22;;;;;;;3.50;2.60;;;-0.70;99.90;;;;;;4209550;28;20428;-73
2023/02/14 01:10:23;;;;;;;3.73;2.23;;;-0.70;99.90;;;;;;4205361;28;20422;-73
2023/02/14 01:12:23;;;;;;;3.13;2.07;;;-0.70;99.90;;;;;;4206320;28;20492;-73
2023/02/14 01:14:25;;;;;;;4.83;2.43;;;-0.70;99.90;;;;;;4190765;28;20199;-74
2023/02/14 01:16:28;;;;;;;3.73;2.80;;;-0.70;99.90;;;;;;4207817;28;20186;-73
2023/02/14 01:18:29;;;;;;;3.67;2.80;;;-0.70;99.90;;;;;;4209644;28;20464;-74
2023/02/14 01:20:31;;;;;;;3.80;2.20;;;-0.70;99.90;;;;;;4206586;28;20443;-74
2023/02/14 01:22:38;;;;;;;3.93;2.60;;;-0.70;99.90;;;;;;4212360;28;20187;-74
2023/02/14 01:24:39;;;;;;;2.77;1.93;;;-0.70;99.90;;;;;;4212842;28;20441;-74
2023/02/14 01:26:40;;;;;;;3.57;2.20;;;-0.60;99.90;;;;;;4204809;28;20422;-73
2023/02/14 01:28:42;;;;;;;2.37;2.03;;;-0.60;99.90;;;;;;4211897;28;20436;-74
2023/02/14 01:30:43;;;;;;;3.67;2.47;;;-0.60;99.90;;;;;;4209060;28;20198;-73
2023/02/14 01:32:44;;;;;;;3.73;2.00;;;-0.70;99.90;;;;;;4194887;28;20514;-74
2023/02/14 01:34:44;;;;;;;2.67;1.80;;;-0.70;99.90;;;;;;4206704;28;20215;-74
2023/02/14 01:36:45;;;;;;;2.83;1.80;;;-0.70;99.90;;;;;;4206372;28;20271;-73
2023/02/14 01:38:46;;;;;;;4.10;1.73;;;-0.70;99.90;;;;;;4186378;28;20274;-74
2023/02/14 01:40:47;;;;;;;2.73;1.60;;;-0.70;99.90;;;;;;4200168;28;20187;-73
2023/02/14 01:42:47;;;;;;;2.77;1.70;;;-0.80;99.90;;;;;;4198581;28;20435;-74
2023/02/14 01:45:08;;;;;;;3.93;2.37;;;-0.80;99.90;;;;;;4198862;28;20203;-74
2023/02/14 01:47:10;;;;;;;2.63;1.63;;;-0.70;99.90;;;;;;4210940;28;20183;-74
2023/02/14 01:49:17;;;;;;;3.10;1.87;;;-0.80;99.90;;;;;;4202526;28;20471;-74
2023/02/14 01:51:19;;;;;;;3.07;1.80;;;-0.80;99.90;;;;;;4208090;28;20774;-73
2023/02/14 01:53:27;;;;;;;2.40;1.93;;;-0.80;99.90;;;;;;4202827;28;20417;-74
2023/02/14 01:55:32;;;;;;;2.93;1.70;;;-0.80;99.90;;;;;;4200826;28;20469;-74
2023/02/14 01:57:43;;;;;;;2.77;2.00;;;-0.80;99.90;;;;;;4197530;28;20549;-73
2023/02/14 01:59:55;;;;;;;2.03;1.60;;;-0.70;99.90;;;;;;4206586;28;20440;-73
2023/02/14 02:01:56;;;;;;;2.23;1.80;;;-0.80;99.90;;;;;;4211403;28;20465;-73
2023/02/14 02:04:07;;;;;;;4.23;1.93;;;-0.80;99.90;;;;;;4211740;28;20427;-73
2023/02/14 02:06:16;;;;;;;3.53;1.73;;;-0.70;99.90;;;;;;4206667;28;20452;-73
2023/02/14 02:08:17;;;;;;;2.67;1.60;;;-0.80;99.90;;;;;;4198129;28;20445;-74
2023/02/14 02:10:18;;;;;;;1.93;1.50;;;-0.80;99.90;;;;;;4209599;28;20434;-74
2023/02/14 02:12:20;;;;;;;1.93;1.50;;;-0.80;99.90;;;;;;4208575;28;20442;-73
2023/02/14 02:14:23;;;;;;;1.93;1.50;;;-0.90;99.90;;;;;;4207446;28;20514;-74
2023/02/14 02:16:50;;;;;;;2.90;1.60;;;-0.80;99.90;;;;;;4210483;28;20593;-74
2023/02/14 02:19:31;;;;;;;2.17;1.43;;;-0.80;99.90;;;;;;4190810;28;20462;-73
2023/02/14 02:21:50;;;;;;;3.43;1.70;;;-0.80;99.90;;;;;;4215420;28;20421;-74
2023/02/14 02:24:18;;;;;;;1.90;1.40;;;-0.80;99.90;;;;;;4198515;28;20550;-74
2023/02/14 02:27:24;;;;;;;1.70;1.27;;;-0.80;99.90;;;;;;4198725;28;20426;-74
2023/02/14 02:29:59;;;;;;;1.47;0.90;;;-0.90;99.90;;;;;;4171031;28;20950;-73
2023/02/14 02:32:32;;;;;;;2.43;1.43;;;-0.80;99.90;;;;;;4199276;28;21024;-73
2023/02/14 02:35:10;;;;;;;1.73;1.10;;;-0.80;99.90;;;;;;4201242;28;20444;-73
2023/02/14 02:37:59;;;;;;;1.70;1.30;;;-0.80;99.90;;;;;;4195333;28;20491;-73
2023/02/14 02:40:29;;;;;;;2.00;1.20;;;-0.90;99.90;;;;;;4212136;28;20902;-74
2023/02/14 02:42:53;;;;;;;1.93;1.27;;;-0.90;99.90;;;;;;4130006;28;20472;-73
2023/02/14 02:45:10;;;;;;;1.80;1.23;;;-0.90;99.90;;;;;;4205463;28;20914;-73
2023/02/14 02:47:42;;;;;;;1.57;1.00;;;-1.00;99.90;;;;;;4207227;28;20945;-73
2023/02/14 02:55:07;;;;;;;1.13;0.97;;;-0.90;99.90;;;;;;4201769;28;20466;-76
2023/02/14 02:57:15;;;;;;;1.93;1.10;;;-0.90;99.90;;;;;;4181318;28;20446;-75
2023/02/14 02:59:41;;;;;;;1.20;1.10;;;-0.90;99.90;;;;;;4200788;28;20433;-73
2023/02/14 03:01:41;;;;;;;1.33;1.03;;;-0.80;99.90;;;;;;4201420;28;20438;-74
2023/02/14 03:06:10;;;;;;;1.73;1.20;;;-0.90;99.90;;;;;;4176758;28;20247;-74
2023/02/14 03:08:12;;;;;;;1.13;0.83;;;-0.90;99.90;;;;;;4205988;28;20437;-74
2023/02/14 03:10:21;;;;;;;1.33;1.00;;;-0.90;99.90;;;;;;4201822;28;20434;-74
2023/02/14 03:12:33;;;;;;;3.13;1.30;;;-0.90;99.90;;;;;;4209985;28;20666;-75
2023/02/14 03:15:15;;;;;;;1.80;1.23;;;-0.90;99.90;;;;;;4210491;28;20421;-74
2023/02/14 03:18:00;;;;;;;1.73;1.07;;;-0.90;99.90;;;;;;4202366;28;20433;-75
2023/02/14 03:20:20;;;;;;;1.33;1.00;;;-1.00;99.90;;;;;;4196962;28;20441;-74
2023/02/14 03:22:55;;;;;;;1.37;1.10;;;-0.90;99.90;;;;;;4197294;28;20452;-75
2023/02/14 03:25:21;;;;;;;0.97;0.90;;;-0.90;99.90;;;;;;4197081;28;20471;-75
2023/02/14 03:27:34;;;;;;;1.30;1.20;;;-0.90;99.90;;;;;;4201144;28;20441;-75
2023/02/14 03:29:57;;;;;;;1.30;0.90;;;-0.90;99.90;;;;;;4198558;28;20420;-74
2023/02/14 03:32:18;;;;;;;1.63;1.33;;;-0.80;99.90;;;;;;4211366;28;20428;-75
2023/02/14 03:34:43;;;;;;;1.67;1.27;;;-0.80;99.90;;;;;;4199105;28;20969;-75
2023/02/14 03:37:14;;;;;;;1.37;1.20;;;-0.80;99.90;;;;;;4205480;28;20863;-74
2023/02/14 03:40:02;;;;;;;1.77;1.20;;;-0.80;99.90;;;;;;4191591;28;20848;-75
2023/02/14 03:42:25;;;;;;;2.03;1.20;;;-0.90;99.90;;;;;;4200538;28;20443;-75
2023/02/14 03:44:28;;;;;;;2.13;1.20;;;-0.90;99.90;;;;;;4204928;28;21061;-75
2023/02/14 03:46:39;;;;;;;1.20;1.10;;;-0.90;99.90;;;;;;4206095;28;20970;-75
2023/02/14 03:48:40;;;;;;;1.33;1.13;;;-0.90;99.90;;;;;;4205881;28;20452;-74
2023/02/14 03:50:46;;;;;;;1.77;1.10;;;-1.00;99.90;;;;;;4202766;28;21143;-75
2023/02/14 03:52:51;;;;;;;2.70;1.40;;;-1.00;99.90;;;;;;4197459;28;20441;-75
2023/02/14 03:54:55;;;;;;;1.77;1.30;;;-0.90;99.90;;;;;;4197538;28;20477;-75
2023/02/14 03:57:43;;;;;;;2.93;1.33;;;-0.90;99.90;;;;;;4200817;28;20444;-76
2023/02/14 03:59:44;;;;;;;2.00;1.20;;;-0.90;99.90;;;;;;4181142;28;21018;-75
2023/02/14 04:02:12;;;;;;;1.10;1.00;;;-0.90;99.90;;;;;;4189733;28;20440;-75
2023/02/14 04:04:17;;;;;;;2.03;1.50;;;-0.80;99.90;;;;;;4210843;28;20290;-75
2023/02/14 04:06:19;;;;;;;1.83;1.27;;;-0.80;99.90;;;;;;4200810;28;20454;-75
2023/02/14 04:08:29;;;;;;;2.60;1.33;;;-0.90;99.90;;;;;;4207090;28;20420;-75
2023/02/14 04:10:31;;;;;;;2.10;1.40;;;-0.90;99.90;;;;;;4198226;28;20448;-74
2023/02/14 04:12:31;;;;;;;1.53;1.20;;;-0.90;99.90;;;;;;4201143;28;20444;-75
2023/02/14 04:14:32;;;;;;;1.63;1.30;;;-0.90;99.90;;;;;;4206317;28;20425;-77
2023/02/14 04:19:21;;;;;;;2.83;1.40;;;-0.90;99.90;;;;;;4207485;28;20223;-74
2023/02/14 04:21:15;;;;;;;3.23;1.70;;;-1.00;99.90;;;;;;4201625;28;20969;-75
2023/02/14 04:23:16;;;;;;;1.77;1.47;;;-0.90;99.90;;;;;;4207703;28;20591;-74
2023/02/14 04:25:18;;;;;;;3.70;2.00;;;-0.90;99.90;;;;;;4207811;28;20437;-75
2023/02/14 04:27:18;;;;;;;1.33;1.13;;;-0.90;99.90;;;;;;4205834;28;20191;-75
2023/02/14 04:29:21;;;;;;;1.60;1.20;;;-1.00;99.90;;;;;;4207598;28;20431;-73
2023/02/14 04:31:22;;;;;;;3.30;1.97;;;-1.00;99.90;;;;;;4213638;28;20532;-74
2023/02/14 04:33:23;;;;;;;2.40;1.80;;;-1.00;99.90;;;;;;4202357;28;20450;-74
2023/02/14 04:35:24;;;;;;;2.67;1.60;;;-0.90;99.90;;;;;;4206981;28;20888;-74
2023/02/14 04:37:25;;;;;;;3.07;1.90;;;-0.80;99.90;;;;;;4181746;28;20202;-74
2023/02/14 04:39:25;;;;;;;1.90;1.50;;;-0.80;99.90;;;;;;4198269;28;20191;-74
2023/02/14 04:41:26;;;;;;;2.53;1.87;;;-0.90;99.90;;;;;;4213556;28;20266;-74
2023/02/14 04:43:28;;;;;;;1.97;1.53;;;-0.80;99.90;;;;;;4213938;28;20515;-74
2023/02/14 04:45:29;;;;;;;3.13;2.10;;;-0.70;99.90;;;;;;4209659;28;20211;-74
2023/02/14 04:47:31;;;;;;;2.30;1.67;;;-0.70;99.90;;;;;;4194189;28;20506;-74
2023/02/14 04:49:32;;;;;;;2.37;1.47;;;-0.80;99.90;;;;;;4204204;28;20206;-75
2023/02/14 04:51:33;;;;;;;3.07;1.93;;;-0.90;99.90;;;;;;4211850;28;20444;-73
2023/02/14 04:53:39;;;;;;;1.87;1.40;;;-1.00;99.90;;;;;;4205603;28;20521;-73
2023/02/14 04:55:39;;;;;;;3.23;1.90;;;-1.00;99.90;;;;;;4222148;28;20274;-74
2023/02/14 04:57:40;;;;;;;3.53;2.10;;;-1.00;99.90;;;;;;4194552;28;20481;-74
2023/02/14 04:59:41;;;;;;;2.57;1.77;;;-1.10;99.90;;;;;;4206498;28;20195;-72
2023/02/14 05:01:44;;;;;;;2.53;2.07;;;-1.10;99.90;;;;;;4211827;28;20575;-74
2023/02/14 05:03:44;;;;;;;5.63;1.90;;;-1.10;99.90;;;;;;4204077;28;20422;-74
2023/02/14 05:05:45;;;;;;;3.93;1.90;;;-1.00;99.90;;;;;;4198749;28;20478;-73
2023/02/14 05:07:46;;;;;;;3.63;1.70;;;-0.90;99.90;;;;;;4209848;28;20195;-73
2023/02/14 05:09:47;;;;;;;3.23;1.60;;;-1.00;99.90;;;;;;4206577;28;20677;-74
2023/02/14 05:11:48;;;;;;;2.40;1.73;;;-1.00;99.90;;;;;;4209826;28;20570;-74
2023/02/14 05:13:50;;;;;;;1.87;1.70;;;-1.00;99.90;;;;;;4193855;28;20214;-74
2023/02/14 05:15:50;;;;;;;2.07;1.67;;;-1.00;99.90;;;;;;4183986;28;20238;-74
2023/02/14 05:17:51;;;;;;;3.93;2.00;;;-1.00;99.90;;;;;;4209283;28;21017;-74
2023/02/14 05:19:52;;;;;;;3.10;1.80;;;-1.00;99.90;;;;;;4195124;28;20187;-74
2023/02/14 05:21:52;;;;;;;2.50;1.80;;;-1.00;99.90;;;;;;4195992;28;20202;-74
2023/02/14 05:23:53;;;;;;;3.00;2.27;;;-1.00;99.90;;;;;;4194853;28;20656;-74
2023/02/14 05:25:54;;;;;;;3.30;1.97;;;-0.90;99.90;;;;;;4180717;28;20305;-74
2023/02/14 05:27:55;;;;;;;2.10;1.87;;;-1.00;99.90;;;;;;4208447;28;20234;-74
2023/02/14 05:29:56;;;;;;;1.77;1.27;;;-1.00;99.90;;;;;;4195539;28;20316;-74
2023/02/14 05:31:56;;;;;;;3.77;2.43;;;-1.00;99.90;;;;;;4199757;28;20927;-74
2023/02/14 05:33:57;;;;;;;9.43;2.47;;;-1.00;99.90;;;;;;4201003;28;20206;-74
2023/02/14 05:36:01;;;;;;;3.17;2.10;;;-1.00;99.90;;;;;;4205419;28;20246;-74
2023/02/14 05:38:02;;;;;;;2.97;2.10;;;-0.90;99.90;;;;;;4222608;28;20221;-74
2023/02/14 05:40:03;;;;;;;4.20;2.20;;;-1.00;99.90;;;;;;4180659;28;20442;-74
2023/02/14 05:42:04;;;;;;;3.70;2.20;;;-1.00;99.90;;;;;;4197687;28;20198;-74
2023/02/14 05:44:05;;;;;;;3.53;2.20;;;-1.00;99.90;;;;;;4194233;28;20433;-74
2023/02/14 05:46:06;;;;;;;3.30;2.00;;;-1.00;99.90;;;;;;4193708;28;20352;-77
2023/02/14 05:48:06;;;;;;;3.20;2.33;;;-0.90;99.90;;;;;;4210178;28;20214;-74
2023/02/14 05:50:08;;;;;;;3.17;2.10;;;-1.00;99.90;;;;;;4205430;28;20682;-74
2023/02/14 05:52:09;;;;;;;3.07;2.20;;;-0.90;99.90;;;;;;4202422;28;20288;-74
2023/02/14 05:54:09;;;;;;;3.53;2.40;;;-1.00;99.90;;;;;;4219308;28;20437;-74
2023/02/14 05:56:10;;;;;;;4.53;3.10;;;-1.00;99.90;;;;;;4205268;28;20202;-73
2023/02/14 05:58:11;;;;;;;3.00;2.53;;;-0.90;99.90;;;;;;4200915;28;20217;-76
2023/02/14 06:00:15;;;;;;;5.27;2.70;;;-0.90;99.90;;;;;;4202233;28;20562;-74
2023/02/14 06:02:16;;;;;;;3.23;2.03;;;-0.90;99.90;;;;;;4211590;28;20447;-74
2023/02/14 06:04:16;;;;;;;4.13;2.13;;;-0.90;99.90;;;;;;4202703;28;20430;-74
2023/02/14 06:06:17;;;;;;;3.13;2.20;;;-1.00;99.90;;;;;;4179607;28;20204;-74
2023/02/14 06:08:18;;;;;;;3.43;1.87;;;-1.00;99.90;;;;;;4205476;28;20187;-74
2023/02/14 06:10:23;;;;;;;3.57;1.93;;;-1.00;99.90;;;;;;4211937;28;20179;-74
2023/02/14 06:12:23;;;;;;;3.73;2.07;;;-1.00;99.90;;;;;;4180489;28;20187;-74
2023/02/14 06:14:24;;;;;;;2.47;1.80;;;-1.00;99.90;;;;;;4196499;28;20538;-74
2023/02/14 06:16:25;;;;;;;2.70;2.00;;;-1.10;99.90;;;;;;4203909;28;20208;-74
2023/02/14 06:18:28;;;;;;;2.93;2.30;;;-1.10;99.90;;;;;;4205366;28;21316;-77
2023/02/14 06:20:29;;;;;;;5.53;3.80;;;-1.10;99.90;;;;;;4191215;28;20192;-77
2023/02/14 06:22:30;;;;;;;5.53;3.33;;;-1.00;99.90;;;;;;4187764;28;20441;-76
2023/02/14 06:24:31;;;;;;;9.17;5.13;;;-1.10;99.90;;;;;;4217151;28;20561;-76
2023/02/14 06:26:34;;;;;;;6.50;3.93;;;-1.10;99.90;;;;;;4206082;28;20182;-77
2023/02/14 06:28:35;;;;;;;4.97;3.57;;;-1.00;99.90;;;;;;4209177;28;20443;-77
2023/02/14 06:30:37;;;;;;;6.00;3.23;;;-1.00;99.90;;;;;;4218082;28;20451;-75
2023/02/14 06:32:38;;;;;;;7.53;2.83;;;-1.00;99.90;;;;;;4217974;28;20455;-77
2023/02/14 06:34:39;;;;;;;4.80;2.97;;;-1.00;99.90;;;;;;4206072;28;20974;-76
2023/02/14 06:36:40;;;;;;;8.40;3.27;;;-1.00;99.90;;;;;;4189164;28;20460;-76
2023/02/14 06:38:41;;;;;;;3.20;2.20;;;-1.10;99.90;;;;;;4201992;28;20270;-76
2023/02/14 06:40:42;;;;;;;3.20;2.10;;;-1.10;99.90;;;;;;4207360;28;20564;-76
2023/02/14 06:42:43;;;;;;;6.10;2.60;;;-1.00;99.90;;;;;;4207095;28;20197;-76
2023/02/14 06:44:44;;;;;;;3.43;2.07;;;-1.00;99.90;;;;;;4185775;28;20465;-77
2023/02/14 06:46:44;;;;;;;2.80;2.00;;;-0.90;99.90;;;;;;4197033;28;20513;-76
2023/02/14 06:48:45;;;;;;;2.47;1.63;;;-0.90;99.90;;;;;;4199896;28;20199;-77
2023/02/14 06:50:46;;;;;;;2.67;2.00;;;-0.90;99.90;;;;;;4197766;28;20546;-76
2023/02/14 06:52:47;;;;;;;3.00;1.90;;;-0.90;99.90;;;;;;4202070;28;20691;-76
2023/02/14 06:54:48;;;;;;;2.63;2.37;;;-0.80;99.90;;;;;;4204823;28;20464;-77
2023/02/14 06:56:50;;;;;;;3.10;1.80;;;-0.80;99.90;;;;;;4192714;28;20180;-77
2023/02/14 06:58:51;;;;;;;2.83;1.97;;;-0.80;99.90;;;;;;4170486;28;20487;-77
2023/02/14 07:00:55;;;;;;;3.13;2.10;;;-0.80;99.90;;;;;;4202606;28;20448;-77
2023/02/14 07:02:56;;;;;;;3.17;1.90;;;-0.80;99.90;;;;;;4192131;28;20192;-76
2023/02/14 07:04:56;;;;;;;3.47;2.30;;;-0.80;99.90;;;;;;4188506;28;20807;-77
2023/02/14 07:06:57;;;;;;;2.60;2.07;;;-0.70;99.90;;;;;;4208649;28;20503;-77
2023/02/14 07:08:58;;;;;;;3.43;2.37;;;-0.70;99.90;;;;;;4196842;28;20628;-77
2023/02/14 07:10:59;;;;;;;3.50;2.10;;;-0.70;99.90;;;;;;4209683;28;20217;-77
2023/02/14 07:13:01;;;;;;;3.23;2.40;;;-0.70;99.90;;;;;;4206367;28;20294;-77
2023/02/14 07:15:03;;;;;;;4.13;2.30;;;-0.70;99.90;;;;;;4195948;28;20215;-77
2023/02/14 07:17:04;;;;;;;3.20;2.30;;;-0.60;99.90;;;;;;4209910;28;21009;-77
2023/02/14 07:19:04;;;;;;;4.47;2.40;;;-0.70;99.90;;;;;;4210701;28;20472;-77
2023/02/14 07:21:05;;;;;;;3.00;2.13;;;-0.70;99.90;;;;;;4199669;28;20747;-77
2023/02/14 07:23:06;;;;;;;3.73;2.13;;;-0.70;99.90;;;;;;4199645;28;20274;-77
2023/02/14 07:25:07;;;;;;;3.33;1.87;;;-0.60;99.90;;;;;;4195880;28;20769;-77
2023/02/14 07:27:08;;;;;;;3.13;2.40;;;-0.50;99.90;;;;;;4199912;28;20542;-77
2023/02/14 07:29:08;;;;;;;3.03;2.20;;;-0.50;99.90;;;;;;4200023;28;20539;-77
2023/02/14 07:31:09;;;;;;;4.53;2.43;;;-0.50;99.90;;;;;;4197469;28;20538;-77
2023/02/14 07:33:11;;;;;;;3.53;2.20;;;-0.40;99.90;;;;;;4201768;28;20259;-77
2023/02/14 07:35:12;;;;;;;4.80;2.10;;;-0.40;99.90;;;;;;4213645;28;20363;-77
2023/02/14 07:37:12;;;;;;;3.13;2.00;;;-0.40;99.90;;;;;;4191913;28;20468;-76
2023/02/14 07:39:14;;;;;;;3.90;2.17;;;-0.30;99.90;;;;;;4207981;28;20549;-78
2023/02/14 07:41:14;;;;;;;3.83;2.50;;;-0.30;99.90;;;;;;4213401;28;20661;-77
2023/02/14 07:43:17;;;;;;;3.10;2.00;;;-0.20;99.90;;;;;;4187730;28;20481;-77
2023/02/14 07:45:18;;;;;;;8.80;5.43;;;-0.20;99.90;;;;;;4204691;28;20261;-77
2023/02/14 07:47:19;;;;;;;5.60;3.50;;;-0.20;99.90;;;;;;4200862;28;20438;-76
2023/02/14 07:49:21;;;;;;;5.43;3.57;;;-0.10;99.90;;;;;;4202643;28;20433;-77
2023/02/14 07:51:21;;;;;;;4.87;3.17;;;0.00;99.90;;;;;;4191816;28;20207;-78
2023/02/14 07:53:24;;;;;;;4.37;2.73;;;0.00;99.90;;;;;;4205910;28;20437;-77
2023/02/14 07:55:26;;;;;;;3.67;2.13;;;0.00;99.90;;;;;;4205683;28;20293;-78
2023/02/14 07:57:26;;;;;;;4.57;2.70;;;0.10;99.90;;;;;;4214310;28;20463;-78
2023/02/14 07:59:27;;;;;;;6.03;2.63;;;0.10;99.90;;;;;;4184902;28;20202;-74
2023/02/14 08:01:28;;;;;;;3.43;2.60;;;0.20;99.90;;;;;;4206616;28;20191;-76
2023/02/14 08:03:29;;;;;;;2.43;1.97;;;0.30;99.90;;;;;;4196686;28;21270;-75
2023/02/14 08:05:29;;;;;;;3.63;2.50;;;0.30;99.90;;;;;;4200120;28;20246;-74
2023/02/14 08:07:30;;;;;;;3.27;2.13;;;0.40;99.90;;;;;;4184429;28;20200;-74
2023/02/14 08:09:31;;;;;;;3.57;2.50;;;0.50;99.90;;;;;;4202319;28;20213;-73
2023/02/14 08:13:52;;;;;;;2.90;2.40;;;0.60;99.90;;;;;;4199334;28;20245;-77
2023/02/14 08:16:06;;;;;;;3.60;2.70;;;0.80;99.90;;;;;;4196661;28;20450;-77
2023/02/14 08:18:07;;;;;;;3.30;2.57;;;0.90;99.90;;;;;;4191235;28;20478;-77
2023/02/14 08:20:08;;;;;;;4.27;3.10;;;1.10;99.90;;;;;;4192299;28;20430;-78
2023/02/14 08:22:09;;;;;;;3.80;2.73;;;1.30;99.90;;;;;;4218584;28;20277;-78
2023/02/14 08:24:09;;;;;;;3.43;2.67;;;1.40;99.90;;;;;;4198303;28;20439;-78
2023/02/14 08:26:10;;;;;;;3.33;2.57;;;1.60;99.90;;;;;;4196077;28;20322;-78
2023/02/14 08:28:12;;;;;;;4.07;2.70;;;1.80;99.90;;;;;;4204707;28;20218;-78
2023/02/14 08:30:14;;;;;;;4.83;2.83;;;1.90;99.90;;;;;;4184901;28;20677;-76
2023/02/14 08:32:14;;;;;;;3.70;2.70;;;1.90;99.90;;;;;;4200209;28;20429;-78
2023/02/14 08:34:16;;;;;;;3.00;2.53;;;2.00;99.90;;;;;;4199361;28;20547;-77
2023/02/14 08:36:17;;;;;;;5.00;3.07;;;2.10;99.90;;;;;;4203978;28;20310;-77
2023/02/14 08:38:18;;;;;;;3.87;2.83;;;2.20;99.90;;;;;;4182918;28;20478;-78
2023/02/14 08:40:19;;;;;;;4.00;2.73;;;2.30;99.90;;;;;;4192043;28;20793;-77
2023/02/14 08:42:20;;;;;;;4.10;2.50;;;2.30;99.90;;;;;;4160913;28;20660;-75
2023/02/14 08:44:21;;;;;;;6.13;3.70;;;2.50;99.90;;;;;;4174117;28;21829;-77
2023/02/14 08:46:21;;;;;;;4.70;3.40;;;2.60;99.90;;;;;;4171327;28;20191;-77
2023/02/14 08:48:24;;;;;;;7.23;4.40;;;2.70;99.90;;;;;;4163900;28;20215;-75
2023/02/14 08:50:25;;;;;;;5.40;4.00;;;2.80;99.90;;;;;;4167393;28;20234;-77
2023/02/14 08:52:26;;;;;;;7.00;4.13;;;2.90;99.90;;;;;;4168584;28;20837;-78
2023/02/14 08:54:27;;;;;;;4.37;3.30;;;3.10;99.90;;;;;;4150806;28;20479;-76
2023/02/14 08:56:28;;;;;;;4.97;3.97;;;3.30;99.90;;;;;;4145020;28;20445;-77
2023/02/14 08:58:29;;;;;;;4.50;3.43;;;3.30;99.90;;;;;;4174202;28;20226;-74
2023/02/14 09:00:31;;;;;;;5.50;3.80;;;3.50;99.90;;;;;;4125899;28;20238;-75
2023/02/14 09:02:31;;;;;;;7.53;4.27;;;3.60;99.90;;;;;;4142778;28;20203;-76
2023/02/14 09:04:34;;;;;;;6.23;4.50;;;3.90;99.90;;;;;;4157775;28;20444;-77
2023/02/14 09:06:38;;;;;;;8.33;5.67;;;4.00;99.90;;;;;;4146903;28;20202;-76
2023/02/14 09:08:39;;;;;;;7.20;5.43;;;4.20;99.90;;;;;;4159119;28;20577;-76
2023/02/14 09:10:40;;;;;;;13.90;7.93;;;4.40;99.90;;;;;;4163818;28;20497;-77
2023/02/14 09:12:42;;;;;;;13.17;7.47;;;4.60;99.90;;;;;;4158528;28;20438;-76
2023/02/14 09:14:43;;;;;;;9.97;6.30;;;4.80;99.90;;;;;;4150019;28;20717;-76
2023/02/14 09:16:44;;;;;;;13.57;7.63;;;4.90;99.90;;;;;;4156877;28;20430;-77
2023/02/14 09:18:47;;;;;;;17.73;9.90;;;5.10;99.90;;;;;;4160211;28;20920;-77
2023/02/14 09:20:47;;;;;;;21.13;9.97;;;5.30;99.90;;;;;;4132529;28;20204;-78
2023/02/14 09:22:48;;;;;;;21.03;9.37;;;5.50;99.90;;;;;;4164858;28;20582;-77
2023/02/14 09:24:49;;;;;;;20.70;9.03;;;5.80;99.90;;;;;;4155731;28;20223;-77
2023/02/14 09:26:50;;;;;;;17.00;7.87;;;6.00;99.90;;;;;;4159697;28;20643;-76
2023/02/14 09:28:51;;;;;;;14.93;6.70;;;6.20;99.90;;;;;;4161498;28;20200;-76
2023/02/14 09:30:52;;;;;;;11.23;6.03;;;6.40;99.90;;;;;;4161829;28;20943;-77
2023/02/14 09:32:53;;;;;;;8.63;4.87;;;6.60;99.90;;;;;;4155196;28;20202;-76
2023/02/14 09:34:54;;;;;;;12.90;7.13;;;6.80;98.80;;;;;;4166008;28;20234;-76
2023/02/14 09:36:55;;;;;;;13.87;7.10;;;7.00;98.80;;;;;;4155284;28;21651;-75
2023/02/14 09:38:56;;;;;;;14.67;7.87;;;7.20;97.70;;;;;;4152839;28;20294;-76
2023/02/14 09:40:57;;;;;;;9.60;5.10;;;7.40;97.40;;;;;;4163995;28;20196;-74
2023/02/14 09:43:32;;;;;;;11.93;6.30;;;7.50;97.30;;;;;;4162655;28;20195;-74
2023/02/14 09:45:34;;;;;;;12.00;5.60;;;7.70;96.80;;;;;;4154687;28;20217;-73
2023/02/14 09:48:05;;;;;;;13.13;6.37;;;8.00;97.40;;;;;;4139603;28;20223;-74
2023/02/14 09:50:21;;;;;;;13.33;6.57;;;8.10;97.00;;;;;;4150816;28;20187;-78
2023/02/14 09:52:27;;;;;;;7.40;5.00;;;8.30;96.40;;;;;;4195537;28;20198;-78
2023/02/14 09:54:30;;;;;;;8.77;4.97;;;8.40;96.40;;;;;;4201256;28;20194;-75
2023/02/14 09:56:42;;;;;;;7.47;5.10;;;8.60;96.60;;;;;;4180139;28;20196;-76
2023/02/14 09:59:27;;;;;;;10.93;5.17;;;8.80;96.70;;;;;;4197437;28;20298;-76
2023/02/14 10:01:55;;;;;;;15.50;5.27;;;9.10;96.40;;;;;;4200993;28;20204;-77
2023/02/14 10:04:54;;;;;;;7.07;4.50;;;9.30;98.60;;;;;;4203516;28;20183;-77
2023/02/14 10:07:18;;;;;;;8.37;4.57;;;9.50;99.00;;;;;;4195765;28;20529;-76
2023/02/14 10:09:43;;;;;;;7.53;4.47;;;10.00;98.20;;;;;;4179605;28;20678;-76
2023/02/14 10:11:47;;;;;;;7.37;4.60;;;10.60;97.40;;;;;;4209922;28;20194;-77
2023/02/14 10:13:51;;;;;;;5.17;3.67;;;11.00;99.90;;;;;;4181176;28;20632;-76
2023/02/14 10:16:02;;;;;;;6.47;4.37;;;11.50;99.90;;;;;;4196812;28;20295;-75
2023/02/14 10:18:21;;;;;;;7.93;4.97;;;12.00;99.90;;;;;;4200748;28;20727;-75
2023/02/14 10:20:43;;;;;;;6.03;3.90;;;12.90;99.90;;;;;;4204319;28;20586;-78
2023/02/14 10:23:26;;;;;;;5.53;4.00;;;13.80;99.90;;;;;;4196014;28;20753;-75
2023/02/14 10:25:45;;;;;;;4.80;3.70;;;14.60;99.90;;;;;;4197813;28;20306;-72
2023/02/14 10:27:46;;;;;;;5.77;3.90;;;15.50;98.60;;;;;;4194337;28;20198;-76
2023/02/14 10:29:47;;;;;;;6.03;3.50;;;16.20;99.90;;;;;;4181061;28;20345;-78
2023/02/14 10:31:54;;;;;;;4.87;3.50;;;16.70;99.90;;;;;;4201230;28;20602;-78
2023/02/14 10:34:06;;;;;;;4.40;3.30;;;17.20;97.90;;;;;;4207251;28;20204;-78
2023/02/14 10:36:22;;;;;;;5.73;3.63;;;17.60;94.00;;;;;;4195800;28;20578;-75
2023/02/14 10:38:43;;;;;;;4.43;3.30;;;18.00;91.30;;;;;;4200413;28;20212;-77
2023/02/14 10:40:59;;;;;;;2.80;2.50;;;18.50;84.70;;;;;;4202999;28;20194;-76
2023/02/14 10:44:17;;;;;;;4.23;2.77;;;18.60;72.60;;;;;;4197238;28;20742;-77
2023/02/14 10:46:37;;;;;;;2.40;2.03;;;18.60;63.40;;;;;;4176591;28;20677;-76
2023/02/14 10:49:17;;;;;;;3.87;2.40;;;18.90;66.00;;;;;;4209229;28;20189;-76
2023/02/14 10:51:32;;;;;;;3.17;2.27;;;18.70;56.10;;;;;;4200374;28;20233;-75
2023/02/14 10:54:12;;;;;;;2.90;2.20;;;18.90;54.30;;;;;;4194169;28;20211;-77
2023/02/14 10:56:31;;;;;;;2.60;2.30;;;18.50;51.30;;;;;;4202850;28;20223;-75
2023/02/14 10:58:37;;;;;;;4.73;2.73;;;19.20;55.00;;;;;;4209200;28;20317;-76
2023/02/14 11:00:49;;;;;;;3.00;2.30;;;19.60;47.10;;;;;;4198810;28;20185;-75
2023/02/14 11:02:56;;;;;;;4.63;2.80;;;19.50;46.20;;;;;;4178063;28;20200;-78
2023/02/14 11:04:59;;;;;;;3.67;2.90;;;19.60;44.70;;;;;;4191287;28;20658;-75
2023/02/14 11:06:59;;;;;;;4.03;2.83;;;19.60;42.50;;;;;;4198941;28;20187;-75
2023/02/14 11:09:00;;;;;;;3.87;2.63;;;19.80;41.70;;;;;;4197328;28;20265;-75
2023/02/14 11:11:31;;;;;;;3.43;2.40;;;19.40;41.10;;;;;;4196217;28;20677;-75
2023/02/14 11:13:36;;;;;;;3.53;2.67;;;19.40;41.60;;;;;;4191966;28;20673;-76